Time;durP1;ratioP1;P1;durP2;ratioP2;P2;SDS_P1;SDS_P2;PMS_P1;PMS_P2;Temp;Humidity;BMP_temperature;BMP_pressure;BME280_temperature;BME280_humidity;BME280_pressure;Samples;Min_cycle;Max_cycle;Signal;HPM_P1;HPM_P2
2022/09/02 00:01:51;;;;;;;7.03;2.60;;;;;;;14.95;81.67;100725.94;4988116;28;20053;-80
2022/09/02 00:04:21;;;;;;;7.05;2.60;;;;;;;14.98;81.63;100720.28;5021433;28;20034;-81
2022/09/02 00:06:49;;;;;;;4.40;1.90;;;;;;;15.01;81.64;100724.41;4980086;28;20112;-80
2022/09/02 00:09:17;;;;;;;8.77;2.30;;;;;;;15.05;81.45;100717.75;5017008;28;20039;-80
2022/09/02 00:11:45;;;;;;;5.68;2.28;;;;;;;15.13;81.08;100719.56;4968566;28;20042;-80
2022/09/02 00:14:15;;;;;;;6.82;2.30;;;;;;;15.19;80.71;100705.63;4969143;28;20030;-81
2022/09/02 00:16:50;;;;;;;10.45;2.47;;;;;;;15.24;80.58;100708.59;4992929;28;20041;-82
2022/09/02 00:19:19;;;;;;;5.40;2.35;;;;;;;15.29;80.33;100701.94;4973468;28;20784;-80
2022/09/02 00:21:45;;;;;;;7.03;2.80;;;;;;;15.28;80.17;100703.75;4983377;28;20063;-81
2022/09/02 00:24:11;;;;;;;5.82;2.05;;;;;;;15.32;79.95;100706.94;4981169;28;20066;-81
2022/09/02 00:26:37;;;;;;;7.20;2.22;;;;;;;15.33;79.85;100693.44;4982264;28;20037;-80
2022/09/02 00:29:04;;;;;;;4.68;1.98;;;;;;;15.40;79.67;100690.09;4974919;28;20478;-81
2022/09/02 00:31:32;;;;;;;3.38;2.15;;;;;;;15.45;79.31;100695.75;5015010;28;20034;-80
2022/09/02 00:33:58;;;;;;;4.88;2.15;;;;;;;15.43;79.05;100687.09;4965558;28;20038;-82
2022/09/02 00:36:25;;;;;;;8.68;2.67;;;;;;;15.40;79.19;100682.91;4992119;28;20038;-81
2022/09/02 00:38:51;;;;;;;8.07;2.38;;;;;;;15.35;79.19;100672.78;5019635;28;20510;-81
2022/09/02 00:41:20;;;;;;;11.77;3.10;;;;;;;15.40;78.88;100680.25;4970561;28;20037;-80
2022/09/02 00:43:55;;;;;;;8.32;2.85;;;;;;;15.40;78.84;100671.44;4977708;28;20042;-81
2022/09/02 00:46:23;;;;;;;7.20;2.45;;;;;;;15.36;78.81;100660.31;4973169;28;20057;-79
2022/09/02 00:49:16;;;;;;;6.40;2.08;;;;;;;15.28;78.61;100662.97;5002762;28;20042;-79
2022/09/02 00:51:48;;;;;;;6.88;2.33;;;;;;;15.11;79.08;100653.19;4987350;28;20046;-80
2022/09/02 00:54:16;;;;;;;5.53;1.92;;;;;;;15.00;79.59;100653.56;4987485;28;20488;-81
2022/09/02 00:56:45;;;;;;;4.18;1.70;;;;;;;14.90;79.99;100653.75;4982828;28;20065;-80
2022/09/02 00:59:29;;;;;;;7.78;2.47;;;;;;;14.82;80.16;100649.25;4949674;28;20114;-80
2022/09/02 01:01:55;;;;;;;8.63;2.55;;;;;;;14.90;80.22;100652.91;4992733;28;20026;-81
2022/09/02 01:04:21;;;;;;;4.47;2.10;;;;;;;14.90;79.79;100644.91;4989488;28;20041;-81
2022/09/02 01:06:47;;;;;;;6.28;2.22;;;;;;;14.93;79.60;100652.56;4992213;28;20042;-80
2022/09/02 01:09:15;;;;;;;10.35;2.60;;;;;;;14.97;78.94;100656.56;4998488;28;20118;-80
2022/09/02 01:11:47;;;;;;;6.20;2.30;;;;;;;14.99;78.38;100649.22;5011412;28;20034;-81
2022/09/02 01:14:15;;;;;;;6.85;2.35;;;;;;;14.96;78.25;100646.91;4993576;28;20049;-80
2022/09/02 01:16:53;;;;;;;5.88;1.73;;;;;;;14.94;77.77;100647.06;4986306;28;20510;-80
2022/09/02 01:19:31;;;;;;;6.22;2.35;;;;;;;14.89;78.21;100644.09;4978565;28;20035;-81
2022/09/02 01:21:57;;;;;;;7.13;2.13;;;;;;;14.86;78.49;100649.72;5001277;28;20045;-80
2022/09/02 01:24:28;;;;;;;5.57;3.25;;;;;;;14.86;77.97;100652.38;4986662;28;20067;-81
2022/09/02 01:26:56;;;;;;;6.70;2.65;;;;;;;14.71;78.11;100641.56;5020786;28;20043;-81
2022/09/02 01:29:23;;;;;;;5.88;3.20;;;;;;;14.60;78.45;100640.91;5001214;28;20101;-82
2022/09/02 01:31:50;;;;;;;4.35;3.35;;;;;;;14.56;78.54;100636.06;5001695;28;20038;-80
2022/09/02 01:34:16;;;;;;;5.95;3.17;;;;;;;14.54;78.58;100638.91;4983467;28;20043;-82
2022/09/02 01:36:42;;;;;;;5.47;3.38;;;;;;;14.54;78.62;100638.09;4960720;28;20378;-81
2022/09/02 01:39:10;;;;;;;5.82;3.20;;;;;;;14.51;78.50;100632.09;4988190;28;20049;-81
2022/09/02 01:41:36;;;;;;;5.60;3.17;;;;;;;14.49;78.39;100628.75;5005620;28;20097;-81
2022/09/02 01:44:04;;;;;;;6.57;3.30;;;;;;;14.48;78.19;100629.75;4999520;28;20038;-81
2022/09/02 01:46:31;;;;;;;5.97;3.58;;;;;;;14.47;78.25;100643.22;5000772;28;20074;-82
2022/09/02 01:48:57;;;;;;;5.70;3.05;;;;;;;14.37;77.96;100628.25;4970933;28;20634;-81
2022/09/02 01:51:23;;;;;;;4.43;2.72;;;;;;;14.31;78.04;100626.28;4986278;28;20042;-82
2022/09/02 01:53:50;;;;;;;6.90;3.00;;;;;;;14.29;77.93;100627.41;4986763;28;20038;-81
2022/09/02 01:56:16;;;;;;;10.60;3.42;;;;;;;14.20;77.67;100630.09;4971134;28;20488;-81
2022/09/02 01:58:42;;;;;;;7.68;2.88;;;;;;;14.11;77.75;100621.25;4974701;28;20026;-81
2022/09/02 02:01:10;;;;;;;7.78;2.83;;;;;;;14.09;77.92;100620.59;5004931;28;20035;-80
2022/09/02 02:03:37;;;;;;;5.20;2.22;;;;;;;14.11;78.00;100620.44;4987207;28;20037;-81
2022/09/02 02:06:13;;;;;;;5.55;2.78;;;;;;;14.06;77.53;100612.94;4991042;28;20042;-81
2022/09/02 02:08:41;;;;;;;6.25;3.05;;;;;;;13.98;77.48;100603.09;5007413;28;20046;-80
2022/09/02 02:11:08;;;;;;;5.65;3.05;;;;;;;13.92;77.96;100610.91;4979981;28;20027;-81
2022/09/02 02:13:36;;;;;;;4.72;3.13;;;;;;;13.87;77.90;100604.25;4994449;28;20030;-82
2022/09/02 02:16:02;;;;;;;3.65;2.75;;;;;;;13.87;77.74;100612.22;4999845;28;20503;-82
2022/09/02 02:18:28;;;;;;;6.50;2.30;;;;;;;13.84;77.30;100606.41;4994843;28;20038;-82
2022/09/02 02:20:54;;;;;;;4.82;3.00;;;;;;;13.84;77.31;100601.09;4957741;28;20055;-81
2022/09/02 02:23:22;;;;;;;3.38;2.25;;;;;;;13.83;77.17;100599.41;5002088;28;20046;-81
2022/09/02 02:25:48;;;;;;;4.25;2.40;;;;;;;13.82;76.99;100598.59;4998347;28;20031;-81
2022/09/02 02:28:13;;;;;;;11.45;3.25;;;;;;;13.75;76.74;100598.41;5000392;28;20038;-81
2022/09/02 02:30:40;;;;;;;8.77;2.90;;;;;;;13.74;77.00;100586.09;5014541;28;20085;-80
2022/09/02 02:33:09;;;;;;;4.22;2.63;;;;;;;13.75;76.66;100584.28;5004378;28;20088;-81
2022/09/02 02:35:34;;;;;;;5.85;2.70;;;;;;;13.77;76.56;100588.47;4991910;28;20027;-80
2022/09/02 02:38:00;;;;;;;3.30;2.22;;;;;;;13.72;76.65;100592.59;5002698;28;20105;-81
2022/09/02 02:40:26;;;;;;;3.78;2.53;;;;;;;13.68;76.57;100594.72;4990150;28;20037;-80
2022/09/02 02:42:53;;;;;;;5.88;2.70;;;;;;;13.66;76.30;100598.53;4920179;28;20034;-79
2022/09/02 02:45:21;;;;;;;3.17;2.33;;;;;;;13.60;76.61;100592.06;4958701;28;20436;-80
2022/09/02 02:47:48;;;;;;;4.45;2.70;;;;;;;13.57;76.74;100593.19;4980560;28;20022;-82
2022/09/02 02:50:18;;;;;;;3.28;2.38;;;;;;;13.53;76.61;100589.22;5008155;28;20033;-82
2022/09/02 02:52:47;;;;;;;5.80;3.33;;;;;;;13.47;76.55;100587.97;4964040;28;20038;-80
2022/09/02 02:55:15;;;;;;;5.32;2.50;;;;;;;13.38;76.62;100584.47;4986412;28;20093;-80
2022/09/02 02:57:41;;;;;;;3.25;2.63;;;;;;;13.34;76.47;100583.13;4969903;28;20197;-80
2022/09/02 03:00:15;;;;;;;4.72;2.60;;;;;;;13.34;76.54;100575.19;5001600;28;20027;-80
2022/09/02 03:02:41;;;;;;;4.70;2.80;;;;;;;13.34;76.42;100571.69;4976036;28;20026;-81
2022/09/02 03:05:08;;;;;;;7.72;3.15;;;;;;;13.36;76.49;100569.72;4990168;28;20035;-81
2022/09/02 03:07:34;;;;;;;4.47;2.65;;;;;;;13.28;76.46;100570.50;4964712;28;20084;-82
2022/09/02 03:10:02;;;;;;;10.68;3.10;;;;;;;13.22;76.64;100565.84;4997297;28;20057;-81
2022/09/02 03:12:32;;;;;;;6.40;3.28;;;;;;;13.16;76.55;100564.63;4981859;28;20042;-81
2022/09/02 03:14:58;;;;;;;7.57;3.00;;;;;;;13.10;76.96;100563.44;5005528;28;20039;-81
2022/09/02 03:17:24;;;;;;;7.53;3.75;;;;;;;13.07;76.90;100554.97;5002954;28;20047;-82
2022/09/02 03:19:51;;;;;;;4.72;2.92;;;;;;;13.00;77.03;100560.06;4981326;28;20042;-81
2022/09/02 03:22:17;;;;;;;6.75;2.63;;;;;;;12.87;77.71;100555.19;4990414;28;20512;-81
2022/09/02 03:24:42;;;;;;;3.08;2.45;;;;;;;12.78;77.91;100554.31;4990925;28;20018;-81
2022/09/02 03:27:09;;;;;;;4.35;2.92;;;;;;;12.69;78.35;100553.44;5004317;28;20061;-81
2022/09/02 03:29:35;;;;;;;4.95;2.80;;;;;;;12.68;78.39;100551.75;4986804;28;20050;-81
2022/09/02 03:32:02;;;;;;;2.60;2.38;;;;;;;12.72;78.26;100544.31;5019868;28;20408;-81
2022/09/02 03:34:29;;;;;;;2.72;2.38;;;;;;;12.76;78.49;100543.84;4965317;28;20034;-81
2022/09/02 03:36:55;;;;;;;3.92;2.80;;;;;;;12.83;78.33;100545.88;4982755;28;20038;-82
2022/09/02 03:39:21;;;;;;;5.05;2.20;;;;;;;12.86;78.06;100548.22;5016574;28;20026;-81
2022/09/02 03:41:49;;;;;;;7.38;3.10;;;;;;;12.86;78.28;100548.22;4951607;28;20037;-82
2022/09/02 03:44:15;;;;;;;9.13;3.22;;;;;;;12.78;78.32;100539.25;4987941;28;20038;-81
2022/09/02 03:46:43;;;;;;;6.55;2.97;;;;;;;12.75;78.37;100531.59;5005287;28;20026;-81
2022/09/02 03:49:10;;;;;;;6.68;2.80;;;;;;;12.74;78.35;100529.91;4988479;28;20039;-82
2022/09/02 03:51:39;;;;;;;5.22;3.28;;;;;;;12.77;78.71;100529.59;4969975;28;20041;-81
2022/09/02 03:54:06;;;;;;;6.35;3.05;;;;;;;12.75;78.61;100520.16;4958975;28;20040;-82
2022/09/02 03:56:33;;;;;;;6.78;2.80;;;;;;;12.76;78.67;100527.94;4970669;28;20030;-81
2022/09/02 03:59:00;;;;;;;5.88;3.90;;;;;;;12.71;78.80;100519.63;5013376;28;20505;-81
2022/09/02 04:01:27;;;;;;;8.98;3.70;;;;;;;12.71;78.93;100522.25;4972413;28;20516;-81
2022/09/02 04:03:53;;;;;;;5.60;3.30;;;;;;;12.74;79.11;100513.19;5013533;28;20044;-82
2022/09/02 04:06:21;;;;;;;8.15;3.15;;;;;;;12.80;78.73;100517.84;4998703;28;20408;-81
2022/09/02 04:08:48;;;;;;;4.20;3.08;;;;;;;12.83;78.50;100514.06;4980679;28;20050;-81
2022/09/02 04:11:18;;;;;;;4.63;2.83;;;;;;;12.91;78.04;100519.41;4968174;28;20043;-82
2022/09/02 04:13:48;;;;;;;5.03;3.10;;;;;;;12.90;77.99;100523.03;4999132;28;20030;-82
2022/09/02 04:16:26;;;;;;;7.60;3.08;;;;;;;12.89;78.06;100516.91;5002702;28;20038;-81
2022/09/02 04:18:52;;;;;;;5.55;3.15;;;;;;;12.91;78.44;100511.44;4971455;28;20039;-81
2022/09/02 04:21:18;;;;;;;4.25;3.35;;;;;;;12.96;78.06;100501.19;5018195;28;20046;-82
2022/09/02 04:23:46;;;;;;;6.63;3.78;;;;;;;12.96;77.88;100505.66;4976275;28;20038;-82
2022/09/02 04:26:14;;;;;;;7.05;3.70;;;;;;;12.93;78.12;100498.03;5005391;28;20073;-81
2022/09/02 04:28:41;;;;;;;5.32;3.58;;;;;;;12.88;78.48;100504.63;5006444;28;20043;-81
2022/09/02 04:31:09;;;;;;;4.32;3.05;;;;;;;12.84;78.57;100499.78;4969639;28;20035;-81
2022/09/02 04:33:37;;;;;;;4.82;3.08;;;;;;;12.82;78.69;100499.13;4984172;28;20062;-80
2022/09/02 04:36:06;;;;;;;4.47;3.13;;;;;;;12.85;78.84;100496.97;4999618;28;20126;-82
2022/09/02 04:38:34;;;;;;;7.43;3.30;;;;;;;12.85;78.72;100493.50;4984616;28;20031;-82
2022/09/02 04:41:04;;;;;;;6.53;3.55;;;;;;;12.80;79.05;100493.16;4952905;28;20493;-79
2022/09/02 04:43:30;;;;;;;6.07;3.22;;;;;;;12.80;79.14;100483.38;5020965;28;20408;-81
2022/09/02 04:45:56;;;;;;;6.50;3.28;;;;;;;12.81;79.19;100481.53;4990847;28;20038;-82
2022/09/02 04:48:22;;;;;;;5.05;3.25;;;;;;;12.83;79.00;100485.72;4990726;28;20089;-81
2022/09/02 04:50:48;;;;;;;3.63;2.83;;;;;;;12.81;78.86;100482.38;4963732;28;20428;-81
2022/09/02 04:53:15;;;;;;;5.63;2.80;;;;;;;12.84;78.96;100473.25;4977240;28;20116;-81
2022/09/02 04:55:42;;;;;;;5.28;2.97;;;;;;;12.80;78.88;100466.63;4986343;28;20042;-81
2022/09/02 04:58:10;;;;;;;3.60;3.15;;;;;;;12.78;79.07;100475.59;4992252;28;20038;-81
2022/09/02 05:00:38;;;;;;;3.67;3.08;;;;;;;12.76;79.23;100472.25;4987044;28;20786;-81
2022/09/02 05:03:05;;;;;;;3.88;3.38;;;;;;;12.75;79.43;100473.25;5000999;28;20085;-81
2022/09/02 05:05:33;;;;;;;6.65;3.67;;;;;;;12.75;79.24;100473.25;4998398;28;20065;-81
2022/09/02 05:07:59;;;;;;;3.53;2.70;;;;;;;12.77;79.22;100467.78;4988581;28;20077;-81
2022/09/02 05:10:25;;;;;;;6.35;3.22;;;;;;;12.82;79.15;100468.13;5003687;28;20041;-80
2022/09/02 05:12:51;;;;;;;4.68;2.88;;;;;;;12.76;79.15;100468.75;4977760;28;20039;-81
2022/09/02 05:15:18;;;;;;;6.20;2.85;;;;;;;12.73;79.76;100463.75;4974051;28;20117;-81
2022/09/02 05:17:45;;;;;;;4.85;3.25;;;;;;;12.72;79.86;100468.25;4966918;28;20124;-81
2022/09/02 05:20:12;;;;;;;4.47;3.10;;;;;;;12.71;79.62;100460.47;4995568;28;20042;-82
2022/09/02 05:22:39;;;;;;;5.97;3.15;;;;;;;12.74;79.58;100455.66;5000918;28;20046;-81
2022/09/02 05:25:08;;;;;;;6.80;3.20;;;;;;;12.78;79.56;100459.66;4965406;28;20066;-80
2022/09/02 05:27:35;;;;;;;3.90;2.90;;;;;;;12.80;79.32;100456.84;4969694;28;20042;-79
2022/09/02 05:30:02;;;;;;;5.38;2.90;;;;;;;12.83;79.64;100453.03;4954072;28;20042;-80
2022/09/02 05:32:30;;;;;;;5.22;3.15;;;;;;;12.81;79.28;100455.00;5009543;28;20034;-83
2022/09/02 05:34:56;;;;;;;5.57;2.97;;;;;;;12.80;79.44;100454.19;4992647;28;20110;-81
2022/09/02 05:37:25;;;;;;;5.55;3.67;;;;;;;12.78;79.70;100458.81;4956182;28;20042;-80
2022/09/02 05:39:52;;;;;;;5.95;4.10;;;;;;;12.77;79.80;100452.69;4998016;28;20038;-81
2022/09/02 05:42:19;;;;;;;6.55;3.67;;;;;;;12.75;79.36;100449.38;4986880;28;20027;-81
2022/09/02 05:44:47;;;;;;;11.10;4.05;;;;;;;12.68;79.23;100450.97;4989440;28;20042;-81
2022/09/02 05:47:16;;;;;;;12.13;3.25;;;;;;;12.69;79.63;100447.34;4982329;28;20035;-80
2022/09/02 05:49:43;;;;;;;7.25;3.92;;;;;;;12.71;79.19;100444.56;4985263;28;20373;-81
2022/09/02 05:52:12;;;;;;;4.57;3.67;;;;;;;12.69;79.06;100442.06;4970011;28;20516;-81
2022/09/02 05:54:42;;;;;;;6.70;3.88;;;;;;;12.67;79.08;100438.72;4990205;28;20108;-81
2022/09/02 05:57:15;;;;;;;9.45;4.13;;;;;;;12.70;79.11;100449.00;4980345;28;20034;-80
2022/09/02 05:59:54;;;;;;;8.48;3.60;;;;;;;12.68;79.30;100445.69;5027094;28;20728;-80
2022/09/02 06:02:23;;;;;;;7.15;4.25;;;;;;;12.62;79.26;100439.19;5004448;28;20061;-80
2022/09/02 06:04:51;;;;;;;5.97;3.60;;;;;;;12.60;79.60;100440.31;5001502;28;20465;-81
2022/09/02 06:07:19;;;;;;;7.78;3.75;;;;;;;12.63;79.57;100437.34;4961766;28;20057;-81
2022/09/02 06:09:47;;;;;;;6.53;3.80;;;;;;;12.67;79.63;100433.41;4998540;28;20049;-81
2022/09/02 06:12:17;;;;;;;7.47;4.47;;;;;;;12.69;79.49;100430.59;4981450;28;20038;-80
2022/09/02 06:14:43;;;;;;;6.07;4.10;;;;;;;12.75;79.39;100435.28;4980443;28;20040;-82
2022/09/02 06:17:10;;;;;;;5.40;3.90;;;;;;;12.77;79.39;100426.16;4947802;28;20062;-82
2022/09/02 06:19:46;;;;;;;5.30;4.03;;;;;;;12.83;79.15;100431.81;4978653;28;20105;-81
2022/09/02 06:22:11;;;;;;;10.00;4.38;;;;;;;12.87;79.16;100430.50;4959391;28;20121;-81
2022/09/02 06:24:38;;;;;;;5.43;4.60;;;;;;;12.91;79.31;100423.91;5008694;28;20477;-81
2022/09/02 06:27:08;;;;;;;10.60;5.35;;;;;;;12.96;79.19;100423.41;4999405;28;20042;-82
2022/09/02 06:29:37;;;;;;;5.00;4.15;;;;;;;12.97;79.07;100431.22;4965063;28;20110;-82
2022/09/02 06:32:04;;;;;;;5.15;4.53;;;;;;;13.03;79.15;100424.44;4991603;28;20057;-82
2022/09/02 06:34:30;;;;;;;9.63;4.97;;;;;;;13.07;79.02;100420.47;4988477;28;20322;-81
2022/09/02 06:36:56;;;;;;;6.68;4.95;;;;;;;13.05;79.31;100417.16;5000352;28;20136;-80
2022/09/02 06:39:24;;;;;;;8.23;4.93;;;;;;;13.09;79.52;100415.81;4994266;28;20025;-80
2022/09/02 06:41:52;;;;;;;6.57;5.00;;;;;;;13.09;79.66;100415.00;4993370;28;20041;-80
2022/09/02 06:44:20;;;;;;;12.48;5.50;;;;;;;13.15;79.96;100417.81;4989554;28;20485;-81
2022/09/02 06:46:56;;;;;;;6.43;4.72;;;;;;;13.15;79.91;100409.88;4986076;28;20616;-81
2022/09/02 06:49:23;;;;;;;9.55;4.50;;;;;;;13.14;80.19;100413.53;4994546;28;20027;-81
2022/09/02 06:51:52;;;;;;;4.90;4.13;;;;;;;13.17;80.53;100420.31;4990485;28;20395;-80
2022/09/02 06:54:20;;;;;;;9.57;4.97;;;;;;;13.18;80.60;100426.47;4981585;28;20565;-80
2022/09/02 06:56:50;;;;;;;8.90;4.15;;;;;;;13.18;80.94;100424.66;5013886;28;20113;-81
2022/09/02 06:59:21;;;;;;;7.53;4.25;;;;;;;13.23;81.10;100417.03;4982102;28;20352;-80
2022/09/02 07:01:50;;;;;;;10.07;4.53;;;;;;;13.24;81.15;100418.69;4974720;28;20037;-80
2022/09/02 07:07:07;;;;;;;5.63;4.43;;;;;;;13.33;81.47;100416.06;4989841;28;20049;-80
2022/09/02 07:09:39;;;;;;;9.02;5.40;;;;;;;13.43;81.49;100416.72;4993136;28;20021;-80
2022/09/02 07:12:10;;;;;;;6.97;5.45;;;;;;;13.49;81.11;100417.91;5005122;28;20049;-80
2022/09/02 07:14:43;;;;;;;6.25;4.90;;;;;;;13.51;81.35;100413.28;4999638;28;20104;-79
2022/09/02 07:17:16;;;;;;;10.45;5.30;;;;;;;13.55;81.38;100409.31;4973243;28;20042;-80
2022/09/02 07:19:46;;;;;;;8.43;5.07;;;;;;;13.58;81.58;100408.16;4984939;28;20097;-81
2022/09/02 07:22:13;;;;;;;7.50;5.00;;;;;;;13.63;81.40;100401.34;5006191;28;20030;-81
2022/09/02 07:24:42;;;;;;;10.88;5.20;;;;;;;13.71;81.37;100400.50;5016894;28;20037;-81
2022/09/02 07:27:10;;;;;;;8.00;4.90;;;;;;;13.77;81.39;100389.25;4997806;28;20038;-80
2022/09/02 07:29:36;;;;;;;15.05;5.57;;;;;;;13.83;80.94;100386.88;5004653;28;20048;-80
2022/09/02 07:32:03;;;;;;;7.32;5.30;;;;;;;13.88;80.79;100381.91;4967595;28;20504;-81
2022/09/02 07:34:29;;;;;;;10.15;5.47;;;;;;;13.91;80.71;100388.69;5006281;28;20038;-80
2022/09/02 07:36:55;;;;;;;9.25;5.13;;;;;;;13.96;80.54;100381.06;4995109;28;20488;-80
2022/09/02 07:39:22;;;;;;;11.82;5.32;;;;;;;14.00;80.65;100380.56;5012859;28;20026;-79
2022/09/02 07:41:50;;;;;;;7.68;5.22;;;;;;;14.03;80.59;100374.06;4969311;28;20026;-80
2022/09/02 07:44:19;;;;;;;7.40;5.20;;;;;;;14.05;80.43;100379.25;4984901;28;20033;-80
2022/09/02 07:46:45;;;;;;;12.48;5.55;;;;;;;14.04;80.53;100372.25;4972149;28;20407;-80
2022/09/02 07:49:12;;;;;;;7.93;4.60;;;;;;;14.10;80.56;100379.53;4986004;28;20034;-81
2022/09/02 07:51:41;;;;;;;8.52;5.53;;;;;;;14.13;80.79;100369.41;4995659;28;20501;-80
2022/09/02 07:54:09;;;;;;;9.95;5.35;;;;;;;14.18;80.68;100373.38;4980783;28;20222;-82
2022/09/02 07:56:35;;;;;;;10.18;5.22;;;;;;;14.23;80.86;100371.03;5018497;28;20117;-81
2022/09/02 07:59:01;;;;;;;13.40;5.50;;;;;;;14.28;80.96;100382.00;4985599;28;20113;-82
2022/09/02 08:01:29;;;;;;;12.73;6.07;;;;;;;14.27;80.87;100375.84;5008731;28;20054;-81
2022/09/02 08:03:55;;;;;;;10.80;6.13;;;;;;;14.30;81.04;100377.31;4992563;28;20034;-82
2022/09/02 08:06:27;;;;;;;9.57;5.88;;;;;;;14.38;81.24;100376.50;5007806;28;20042;-81
2022/09/02 08:08:54;;;;;;;12.55;5.68;;;;;;;14.46;81.07;100376.44;4990498;28;20049;-80
2022/09/02 08:11:22;;;;;;;10.65;5.65;;;;;;;14.52;81.04;100378.41;4991298;28;20042;-81
2022/09/02 08:13:48;;;;;;;9.68;5.53;;;;;;;14.59;80.87;100377.72;4955298;28;20026;-81
2022/09/02 08:16:14;;;;;;;11.52;5.57;;;;;;;14.63;80.87;100376.41;4970091;28;20553;-81
2022/09/02 08:18:41;;;;;;;11.77;6.47;;;;;;;14.69;80.95;100373.03;4981752;28;20073;-81
2022/09/02 08:21:07;;;;;;;9.85;5.43;;;;;;;14.76;80.92;100376.66;5001896;28;20091;-81
2022/09/02 08:23:33;;;;;;;12.23;4.38;;;;;;;14.85;80.93;100374.84;5003857;28;20053;-80
2022/09/02 08:25:59;;;;;;;9.70;4.90;;;;;;;14.91;80.84;100359.19;4988535;28;20033;-81
2022/09/02 08:28:26;;;;;;;9.82;5.90;;;;;;;14.96;80.54;100362.97;5000851;28;20038;-80
2022/09/02 08:30:53;;;;;;;10.35;5.80;;;;;;;15.02;80.66;100355.28;4990185;28;20040;-80
2022/09/02 08:33:19;;;;;;;6.38;5.05;;;;;;;15.09;80.54;100356.22;5002804;28;20045;-82
2022/09/02 08:35:46;;;;;;;9.07;5.05;;;;;;;15.16;80.53;100353.69;4986701;28;20038;-80
2022/09/02 08:38:12;;;;;;;10.73;4.82;;;;;;;15.22;80.13;100352.97;4976276;28;20034;-81
2022/09/02 08:40:43;;;;;;;7.10;4.75;;;;;;;15.31;79.79;100349.25;4943664;28;20045;-80
2022/09/02 08:43:39;;;;;;;7.07;4.70;;;;;;;15.40;79.49;100346.53;5024318;28;20045;-80
2022/09/02 08:46:09;;;;;;;4.53;4.03;;;;;;;15.45;79.64;100338.84;4969520;28;20440;-83
2022/09/02 08:48:54;;;;;;;7.47;4.30;;;;;;;15.56;79.25;100342.91;4977521;28;20034;-81
2022/09/02 08:51:46;;;;;;;9.40;5.20;;;;;;;15.63;79.03;100350.00;5007534;28;20096;-81
2022/09/02 08:54:41;;;;;;;7.68;4.40;;;;;;;15.71;78.79;100335.75;4992622;28;20032;-81
2022/09/02 08:57:08;;;;;;;4.88;3.50;;;;;;;15.85;78.74;100338.63;5019392;28;20038;-82
2022/09/02 08:59:35;;;;;;;10.88;3.55;;;;;;;15.93;77.86;100338.53;4982134;28;20553;-82
2022/09/02 09:02:40;;;;;;;6.47;3.97;;;;;;;16.03;77.14;100332.16;4971395;28;20041;-81
2022/09/02 09:05:11;;;;;;;10.50;4.45;;;;;;;16.10;77.19;100333.88;4992981;28;20046;-81
2022/09/02 09:08:06;;;;;;;6.93;3.60;;;;;;;16.26;76.58;100331.22;5008194;28;20042;-81
2022/09/02 09:11:01;;;;;;;9.95;4.32;;;;;;;16.37;76.36;100328.09;4964952;28;20042;-83
2022/09/02 09:13:50;;;;;;;7.68;3.85;;;;;;;16.51;76.16;100326.44;4974278;28;20061;-83
2022/09/02 09:16:53;;;;;;;9.05;4.22;;;;;;;16.66;75.64;100318.38;4977032;28;20746;-83
2022/09/02 09:19:38;;;;;;;9.77;3.72;;;;;;;16.80;75.43;100327.34;5004815;28;20041;-82
2022/09/02 09:22:04;;;;;;;15.05;4.10;;;;;;;16.93;75.42;100317.84;4959822;28;20113;-82
2022/09/02 09:24:42;;;;;;;7.35;3.50;;;;;;;17.06;74.63;100314.47;4981007;28;20145;-81
2022/09/02 09:27:15;;;;;;;17.50;4.55;;;;;;;17.25;74.44;100312.22;5002483;28;20504;-81
2022/09/02 09:29:41;;;;;;;10.55;4.35;;;;;;;17.34;74.00;100295.84;5001931;28;20022;-82
2022/09/02 09:32:33;;;;;;;11.30;3.75;;;;;;;17.43;72.78;100296.53;4987023;28;20048;-83
2022/09/02 09:35:06;;;;;;;8.18;3.72;;;;;;;17.54;72.83;100292.50;4979834;28;20038;-83
2022/09/02 09:37:45;;;;;;;6.32;3.30;;;;;;;17.60;71.71;100288.22;4983223;28;20041;-84
2022/09/02 09:40:20;;;;;;;7.90;4.03;;;;;;;17.65;71.96;100283.13;4976345;28;20042;-85
2022/09/02 09:43:00;;;;;;;6.20;3.15;;;;;;;17.78;71.32;100278.88;4991539;28;20038;-81
2022/09/02 09:45:37;;;;;;;6.55;2.90;;;;;;;17.81;70.88;100276.66;4989045;28;20042;-83
2022/09/02 09:48:15;;;;;;;8.43;3.45;;;;;;;17.85;70.35;100275.22;5013602;28;20063;-84
2022/09/02 09:50:56;;;;;;;7.07;3.50;;;;;;;17.90;70.08;100273.84;4990361;28;20066;-84
2022/09/02 09:53:27;;;;;;;6.28;3.15;;;;;;;18.03;70.19;100273.09;4996330;28;20030;-84
2022/09/02 09:55:57;;;;;;;5.97;2.90;;;;;;;18.03;69.32;100267.72;4984271;28;20501;-85
2022/09/02 09:58:35;;;;;;;7.32;2.85;;;;;;;18.04;68.87;100262.19;5000945;28;20806;-83
2022/09/02 10:01:31;;;;;;;10.57;2.40;;;;;;;18.09;68.40;100258.91;5001827;28;20042;-80
2022/09/02 10:04:00;;;;;;;10.75;2.47;;;;;;;18.09;67.97;100250.88;4974078;28;20042;-85
2022/09/02 10:06:32;;;;;;;6.13;2.38;;;;;;;18.18;67.64;100252.41;5004738;28;20040;-83
2022/09/02 10:09:13;;;;;;;8.18;2.83;;;;;;;18.34;66.89;100239.69;4970329;28;20081;-82
2022/09/02 10:11:57;;;;;;;4.75;2.35;;;;;;;18.42;66.45;100249.38;4983254;28;20038;-81
2022/09/02 10:14:24;;;;;;;3.13;2.28;;;;;;;18.57;66.67;100235.84;5025821;28;20369;-82
2022/09/02 10:17:09;;;;;;;2.75;1.85;;;;;;;18.70;65.76;100240.38;5008162;28;20052;-83
2022/09/02 10:19:40;;;;;;;9.43;2.95;;;;;;;18.72;65.59;100232.97;4994527;28;20448;-83
2022/09/02 10:22:18;;;;;;;4.15;2.00;;;;;;;18.74;64.98;100233.59;5002050;28;20034;-82
2022/09/02 10:25:09;;;;;;;6.95;1.63;;;;;;;18.79;64.93;100227.63;4989279;28;20046;-85
2022/09/02 10:28:02;;;;;;;5.60;1.67;;;;;;;18.91;63.91;100222.47;4977608;28;20030;-83
2022/09/02 10:30:35;;;;;;;9.90;2.03;;;;;;;19.00;63.59;100217.75;4983383;28;20029;-83
2022/09/02 10:33:19;;;;;;;7.50;1.58;;;;;;;19.09;62.11;100201.31;5023602;28;20117;-81
2022/09/02 10:35:51;;;;;;;7.07;1.40;;;;;;;19.17;61.68;100205.63;4949494;28;20057;-83
2022/09/02 10:38:38;;;;;;;4.18;1.58;;;;;;;19.30;60.20;100195.91;4948563;28;24744;-85
2022/09/02 10:41:30;;;;;;;6.03;1.88;;;;;;;19.42;58.20;100198.78;4989628;28;20084;-82
2022/09/02 10:44:08;;;;;;;3.95;1.50;;;;;;;19.55;58.48;100196.06;4993540;28;20045;-82
2022/09/02 10:46:53;;;;;;;3.13;1.58;;;;;;;19.69;57.77;100196.03;4994190;28;20053;-82
2022/09/02 10:49:39;;;;;;;5.63;1.30;;;;;;;19.80;57.24;100181.13;5009872;28;20108;-82
2022/09/02 10:52:12;;;;;;;;;;;;;;;19.65;56.93;100187.56;4978152;28;20066;-84
2022/09/02 10:55:04;;;;;;;4.65;1.35;;;;;;;19.73;57.74;100183.03;4954802;28;20256;-84
2022/09/02 10:57:44;;;;;;;5.47;2.28;;;;;;;19.79;57.16;100176.81;4974465;28;20041;-80
2022/09/02 11:00:17;;;;;;;2.15;1.35;;;;;;;19.82;56.54;100165.66;4976055;28;20476;-84
2022/09/02 11:02:52;;;;;;;7.65;2.03;;;;;;;19.80;56.24;100167.72;5003149;28;20046;-81
2022/09/02 11:05:38;;;;;;;6.05;1.60;;;;;;;19.81;55.44;100158.66;4987249;28;20061;-80
2022/09/02 11:08:13;;;;;;;6.20;1.30;;;;;;;19.83;55.79;100156.56;4996314;28;20054;-81
2022/09/02 11:11:05;;;;;;;6.20;1.53;;;;;;;19.88;54.93;100156.75;4988145;28;20037;-82
2022/09/02 11:13:55;;;;;;;8.00;1.35;;;;;;;19.95;55.11;100144.16;4954151;28;20535;-83
2022/09/02 11:16:28;;;;;;;3.78;1.15;;;;;;;20.01;54.48;100147.81;5002748;28;20068;-82
2022/09/02 11:19:26;;;;;;;8.57;1.90;;;;;;;20.08;53.83;100143.25;5006379;28;20154;-82
2022/09/02 11:22:38;;;;;;;5.60;1.63;;;;;;;20.13;52.36;100144.50;4991997;28;20041;-82
2022/09/02 11:25:16;;;;;;;3.70;1.10;;;;;;;20.15;53.16;100137.03;4962174;28;20065;-80
2022/09/02 11:27:42;;;;;;;5.07;1.20;;;;;;;20.21;52.96;100128.13;4957554;28;20065;-82
2022/09/02 11:30:12;;;;;;;2.92;1.20;;;;;;;20.28;52.36;100122.72;4980091;28;20394;-83
2022/09/02 11:33:16;;;;;;;8.15;1.30;;;;;;;20.35;52.24;100120.00;4991903;28;20504;-81
2022/09/02 11:35:43;;;;;;;2.28;0.90;;;;;;;20.55;52.13;100114.47;5003020;28;20029;-81
2022/09/02 11:38:38;;;;;;;2.60;1.30;;;;;;;20.68;50.55;100113.53;5003844;28;20096;-81
2022/09/02 11:41:23;;;;;;;3.75;1.17;;;;;;;20.79;50.48;100109.31;4968356;28;20066;-82
2022/09/02 11:44:13;;;;;;;6.22;1.60;;;;;;;20.90;50.95;100110.44;5018271;28;20026;-81
2022/09/02 11:46:45;;;;;;;1.50;0.82;;;;;;;20.97;50.38;100097.81;5020417;28;20037;-82